Ryoshin Maru — JD2464 — position and weather

sailwx.info

Track history (hours):
 
Tides and Currents Weather Stations Pressure Air Temp Water Temp Dewpoint Dewpoint Depression Visibility Wind Speed Wind Dir Waves Ship Positions

Ryoshin Maru

Last reported at 2018-Feb-18 11:50 UTC. Time now 2018-Feb-19 06:08 UTC.
Position N 34°19' E 134°30'.

Length 60 m; draft 4.5 m.

Type: Tanker. MMSI: 431000263.

Date/timePositionNaut miles runAvg speedWind from/ knotsBaromVisibWave heightAir tempDewpointWater temp
2018-Feb-18 11:50N 34°19' E 134°30'412.4
2018-Feb-18 11:30N 34°17' E 134°35'612.5
2018-Feb-18 11:00N 34°13' E 134°41'612.5
2018-Feb-18 10:31N 34°08' E 134°45'612.0
2018-Feb-18 10:00N 34°03' E 134°50'611.9
2018-Feb-18 09:30N 33°59' E 134°54'611.8
2018-Feb-18 09:00N 33°54' E 134°59'168 9.3
2018-Feb-17 14:52N 34°34' E 138°17'8 8.9
2018-Feb-17 13:59N 34°37' E 138°26'5 7.6
2018-Feb-17 13:18N 34°38' E 138°32'2 6.7
2018-Feb-17 12:58N 34°38' E 138°34'3 6.5
2018-Feb-17 12:27N 34°38' E 138°39'3 6.5
2018-Feb-17 11:58N 34°37' E 138°42'3 5.5
2018-Feb-17 11:20N 34°36' E 138°46'2 5.0
2018-Feb-17 10:57N 34°35' E 138°48'5 5.0
2018-Feb-17 10:00N 34°36' E 138°54'4 6.4
2018-Feb-17 09:20N 34°38' E 138°59'310.0
2018-Feb-17 09:00N 34°40' E 139°02'710.5
2018-Feb-17 08:19N 34°45' E 139°08'3 9.7
2018-Feb-17 08:00N 34°48' E 139°10'5 8.7
2018-Feb-17 07:28N 34°51' E 139°14'4 8.1
2018-Feb-17 06:55N 34°55' E 139°17'3 7.0
2018-Feb-17 06:27N 34°57' E 139°20'4 7.0
2018-Feb-17 05:56N 34°59' E 139°24'3 6.7
2018-Feb-17 05:29N 35°00' E 139°27'4 7.3
2018-Feb-17 05:00N 35°02' E 139°31'5 8.8
2018-Feb-17 04:28N 35°04' E 139°36'510.3
2018-Feb-17 04:00N 35°06' E 139°41'611.4
2018-Feb-17 03:29N 35°11' E 139°46'511.3
2018-Feb-17 03:00N 35°16' E 139°45'611.6
2018-Feb-17 02:31N 35°22' E 139°42'611.7
2018-Feb-17 02:00N 35°28' E 139°42'3 6.6
2018-Feb-17 01:30N 35°30' E 139°45'0 0.0
2018-Feb-17 00:40N 35°30' E 139°45'0 0.0
2018-Feb-17 00:25N 35°30' E 139°45'0 0.0
2018-Feb-16 23:58N 35°30' E 139°45'0 0.0
2018-Feb-16 23:28N 35°30' E 139°45'2 4.0
2018-Feb-16 23:00N 35°30' E 139°47'2 3.9
2018-Feb-16 22:30N 35°29' E 139°49'0 0.0
2018-Feb-16 21:58N 35°29' E 139°49'0 0.0
2018-Feb-16 21:28N 35°29' E 139°49'0 0.0
2018-Feb-16 20:58N 35°29' E 139°49'0 0.0
2018-Feb-16 20:28N 35°29' E 139°49'0 0.0
2018-Feb-16 19:58N 35°29' E 139°49'0 0.0
2018-Feb-16 19:28N 35°29' E 139°49'0 0.0
2018-Feb-16 18:58N 35°29' E 139°49'0 0.0
2018-Feb-16 18:28N 35°29' E 139°49'0 0.0
2018-Feb-16 17:58N 35°29' E 139°49'0 0.0
2018-Feb-16 17:28N 35°29' E 139°49'4 9.6
2018-Feb-16 17:00N 35°25' E 139°47'713.1
2018-Feb-16 16:31N 35°19' E 139°44'612.4
2018-Feb-16 16:00N 35°13' E 139°47'612.0
2018-Feb-16 15:30N 35°07' E 139°44'612.5
2018-Feb-16 15:00N 35°03' E 139°39'713.8
2018-Feb-16 14:30N 34°58' E 139°33'714.8
2018-Feb-16 14:00N 34°54' E 139°25'714.9
2018-Feb-16 13:30N 34°49' E 139°18'714.3
2018-Feb-16 13:00N 34°45' E 139°11'714.0
2018-Feb-16 12:30N 34°41' E 139°05'713.2
2018-Feb-16 12:00N 34°37' E 138°58'713.6
2018-Feb-16 11:30N 34°34' E 138°50'713.1
2018-Feb-16 10:58N 34°34' E 138°42'713.3
2018-Feb-16 10:27N 34°34' E 138°34'612.9
2018-Feb-16 09:58N 34°34' E 138°26'1813.1
2018-Feb-16 08:33N 34°33' E 138°04'4011.9
2018-Feb-16 05:09N 34°33' E 137°15'1511.5
2018-Feb-16 03:48N 34°36' E 136°56'412.7
2018-Feb-16 03:30N 34°39' E 136°53'612.7
2018-Feb-16 03:00N 34°44' E 136°48'613.0
2018-Feb-16 02:30N 34°49' E 136°44'612.7
2018-Feb-16 02:00N 34°55' E 136°41'3 6.0
2018-Feb-16 01:30N 34°57' E 136°38'0 0.0
2018-Feb-16 01:00N 34°57' E 136°38'0 0.0
2018-Feb-16 00:30N 34°57' E 136°38'0 0.0
2018-Feb-15 23:56N 34°57' E 136°38'2 5.7
2018-Feb-15 23:30N 34°56' E 136°41'510.6
2018-Feb-15 23:00N 34°51' E 136°43'5 9.7
2018-Feb-15 22:30N 34°46' E 136°44'5 9.8
2018-Feb-15 22:00N 34°41' E 136°45'810.2
2018-Feb-15 21:14N 34°34' E 136°48'310.2
2018-Feb-15 20:58N 34°31' E 136°49'96 7.4
2018-Feb-15 07:59N 33°51' E 135°03'611.7
2018-Feb-15 07:30N 33°55' E 134°58'611.4
2018-Feb-15 07:01N 33°59' E 134°54'611.7
2018-Feb-15 06:30N 34°04' E 134°49'612.1
2018-Feb-15 06:01N 34°08' E 134°45'612.7
2018-Feb-15 05:31N 34°13' E 134°40'612.0
2018-Feb-15 05:00N 34°17' E 134°34'611.9
2018-Feb-15 04:30N 34°19' E 134°27'612.1
2018-Feb-15 04:00N 34°21' E 134°20'4 0.5
2018-Feb-14 19:39N 34°20' E 134°25'412.4
2018-Feb-14 19:18N 34°18' E 134°30'412.6
2018-Feb-14 19:00N 34°17' E 134°34'612.7
2018-Feb-14 18:30N 34°13' E 134°40'612.4
2018-Feb-14 18:00N 34°08' E 134°45'612.1
2018-Feb-14 17:30N 34°04' E 134°50'612.4
2018-Feb-14 17:00N 33°59' E 134°55'612.3
2018-Feb-14 16:30N 33°54' E 134°59'100 8.2
2018-Feb-14 04:16N 34°29' E 136°52'310.3
2018-Feb-14 03:59N 34°30' E 136°49'712.3
2018-Feb-14 03:24N 34°37' E 136°47'512.7
2018-Feb-14 02:59N 34°42' E 136°45'612.7
2018-Feb-14 02:30N 34°48' E 136°43'612.6
2018-Feb-14 02:00N 34°54' E 136°41'3 6.9
2018-Feb-14 01:30N 34°57' E 136°38'0 0.0
2018-Feb-14 00:57N 34°57' E 136°38'0 0.0
2018-Feb-14 00:27N 34°57' E 136°38'0 0.0
2018-Feb-13 23:49N 34°57' E 136°38'1 4.7
2018-Feb-13 23:30N 34°57' E 136°40'4 7.3
2018-Feb-13 23:00N 34°54' E 136°42'4 8.3
2018-Feb-13 22:30N 34°50' E 136°43'4 8.4
2018-Feb-13 22:00N 34°45' E 136°44'4 8.2
2018-Feb-13 21:30N 34°41' E 136°46'6 8.4
2018-Feb-13 20:50N 34°36' E 136°47'4 8.7
2018-Feb-13 20:23N 34°32' E 136°48'96 7.9
2018-Feb-13 08:12N 33°48' E 135°05'312.0
2018-Feb-13 07:57N 33°50' E 135°03'511.9
2018-Feb-13 07:30N 33°55' E 134°59'611.9
2018-Feb-13 07:00N 33°59' E 134°54'611.9
2018-Feb-13 06:30N 34°04' E 134°49'612.2
2018-Feb-13 06:00N 34°08' E 134°45'612.3
2018-Feb-13 05:31N 34°13' E 134°40'611.7
2018-Feb-13 05:00N 34°17' E 134°34'612.2
2018-Feb-13 04:30N 34°19' E 134°28'2 0.0
2018-Feb-11 09:26N 34°18' E 134°30'610.3
2018-Feb-11 08:49N 34°16' E 134°37'310.4
2018-Feb-11 08:30N 34°13' E 134°40'611.5
2018-Feb-11 08:00N 34°09' E 134°44'510.6
2018-Feb-11 07:30N 34°05' E 134°48'510.5
2018-Feb-11 07:00N 34°01' E 134°52'510.5
2018-Feb-11 06:30N 33°57' E 134°56'5 9.8
2018-Feb-11 06:00N 33°53' E 135°00'167 8.6
2018-Feb-10 10:39N 34°34' E 138°17'511.5
2018-Feb-10 10:14N 34°34' E 138°23'311.8
2018-Feb-10 09:56N 34°34' E 138°27'812.1
2018-Feb-10 09:18N 34°34' E 138°36'512.0
2018-Feb-10 08:52N 34°35' E 138°42'511.4
2018-Feb-10 08:26N 34°35' E 138°48'510.6
2018-Feb-10 07:58N 34°35' E 138°54'4 9.7
2018-Feb-10 07:30N 34°37' E 138°59'510.7
2018-Feb-10 07:00N 34°41' E 139°04'611.2
2018-Feb-10 06:30N 34°45' E 139°09'510.5
2018-Feb-10 05:59N 34°48' E 139°14'5 9.9
2018-Feb-10 05:29N 34°52' E 139°19'510.0
2018-Feb-10 05:00N 34°55' E 139°23'610.1
2018-Feb-10 04:22N 34°59' E 139°29'411.1
2018-Feb-10 04:01N 35°02' E 139°33'611.9
2018-Feb-10 03:31N 35°05' E 139°39'711.8
2018-Feb-10 02:56N 35°10' E 139°44'511.3
2018-Feb-10 02:30N 35°15' E 139°46'611.8
2018-Feb-10 02:01N 35°20' E 139°42'611.8
2018-Feb-10 01:30N 35°25' E 139°43'5 9.3
2018-Feb-10 01:00N 35°30' E 139°44'1 1.1
2018-Feb-10 00:30N 35°30' E 139°45'0 0.0
2018-Feb-09 23:10N 35°30' E 139°45'0 0.0
2018-Feb-09 22:58N 35°30' E 139°45'0 0.0
2018-Feb-09 22:46N 35°30' E 139°45'20 2.8
2018-Feb-09 15:30N 35°10' E 139°45'4613.2
2018-Feb-09 12:00N 34°39' E 139°03'12011.5
2018-Feb-09 01:30N 34°57' E 136°38'  
Track history (hours):
 
Tides and Currents Weather Stations Pressure Air Temp Water Temp Dewpoint Dewpoint Depression Visibility Wind Speed Wind Dir Waves Ship Positions

Ryoshin Maru

Last reported at 2018-Feb-18 11:50 UTC. Time now 2018-Feb-19 06:08 UTC.
Position N 34°19' E 134°30'.

Length 60 m; draft 4.5 m.

Type: Tanker. MMSI: 431000263.

Date/timePositionNaut miles runAvg speedWind from/ knotsBaromVisibWave heightAir tempDewpointWater temp
2018-Feb-18 11:50N 34°19' E 134°30'412.4
2018-Feb-18 11:30N 34°17' E 134°35'612.5
2018-Feb-18 11:00N 34°13' E 134°41'612.5
2018-Feb-18 10:31N 34°08' E 134°45'612.0
2018-Feb-18 10:00N 34°03' E 134°50'611.9
2018-Feb-18 09:30N 33°59' E 134°54'611.8
2018-Feb-18 09:00N 33°54' E 134°59'168 9.3
2018-Feb-17 14:52N 34°34' E 138°17'8 8.9
2018-Feb-17 13:59N 34°37' E 138°26'5 7.6
2018-Feb-17 13:18N 34°38' E 138°32'2 6.7
2018-Feb-17 12:58N 34°38' E 138°34'3 6.5
2018-Feb-17 12:27N 34°38' E 138°39'3 6.5
2018-Feb-17 11:58N 34°37' E 138°42'3 5.5
2018-Feb-17 11:20N 34°36' E 138°46'2 5.0
2018-Feb-17 10:57N 34°35' E 138°48'5 5.0
2018-Feb-17 10:00N 34°36' E 138°54'4 6.4
2018-Feb-17 09:20N 34°38' E 138°59'310.0
2018-Feb-17 09:00N 34°40' E 139°02'710.5
2018-Feb-17 08:19N 34°45' E 139°08'3 9.7
2018-Feb-17 08:00N 34°48' E 139°10'5 8.7
2018-Feb-17 07:28N 34°51' E 139°14'4 8.1
2018-Feb-17 06:55N 34°55' E 139°17'3 7.0
2018-Feb-17 06:27N 34°57' E 139°20'4 7.0
2018-Feb-17 05:56N 34°59' E 139°24'3 6.7
2018-Feb-17 05:29N 35°00' E 139°27'4 7.3
2018-Feb-17 05:00N 35°02' E 139°31'5 8.8
2018-Feb-17 04:28N 35°04' E 139°36'510.3
2018-Feb-17 04:00N 35°06' E 139°41'611.4
2018-Feb-17 03:29N 35°11' E 139°46'511.3
2018-Feb-17 03:00N 35°16' E 139°45'611.6
2018-Feb-17 02:31N 35°22' E 139°42'611.7
2018-Feb-17 02:00N 35°28' E 139°42'3 6.6
2018-Feb-17 01:30N 35°30' E 139°45'0 0.0
2018-Feb-17 00:40N 35°30' E 139°45'0 0.0
2018-Feb-17 00:25N 35°30' E 139°45'0 0.0
2018-Feb-16 23:58N 35°30' E 139°45'0 0.0
2018-Feb-16 23:28N 35°30' E 139°45'2 4.0
2018-Feb-16 23:00N 35°30' E 139°47'2 3.9
2018-Feb-16 22:30N 35°29' E 139°49'0 0.0
2018-Feb-16 21:58N 35°29' E 139°49'0 0.0
2018-Feb-16 21:28N 35°29' E 139°49'0 0.0
2018-Feb-16 20:58N 35°29' E 139°49'0 0.0
2018-Feb-16 20:28N 35°29' E 139°49'0 0.0
2018-Feb-16 19:58N 35°29' E 139°49'0 0.0
2018-Feb-16 19:28N 35°29' E 139°49'0 0.0
2018-Feb-16 18:58N 35°29' E 139°49'0 0.0
2018-Feb-16 18:28N 35°29' E 139°49'0 0.0
2018-Feb-16 17:58N 35°29' E 139°49'0 0.0
2018-Feb-16 17:28N 35°29' E 139°49'4 9.6
2018-Feb-16 17:00N 35°25' E 139°47'713.1
2018-Feb-16 16:31N 35°19' E 139°44'612.4
2018-Feb-16 16:00N 35°13' E 139°47'612.0
2018-Feb-16 15:30N 35°07' E 139°44'612.5
2018-Feb-16 15:00N 35°03' E 139°39'713.8
2018-Feb-16 14:30N 34°58' E 139°33'714.8
2018-Feb-16 14:00N 34°54' E 139°25'714.9
2018-Feb-16 13:30N 34°49' E 139°18'714.3
2018-Feb-16 13:00N 34°45' E 139°11'714.0
2018-Feb-16 12:30N 34°41' E 139°05'713.2
2018-Feb-16 12:00N 34°37' E 138°58'713.6
2018-Feb-16 11:30N 34°34' E 138°50'713.1
2018-Feb-16 10:58N 34°34' E 138°42'713.3
2018-Feb-16 10:27N 34°34' E 138°34'612.9
2018-Feb-16 09:58N 34°34' E 138°26'1813.1
2018-Feb-16 08:33N 34°33' E 138°04'4011.9
2018-Feb-16 05:09N 34°33' E 137°15'1511.5
2018-Feb-16 03:48N 34°36' E 136°56'412.7
2018-Feb-16 03:30N 34°39' E 136°53'612.7
2018-Feb-16 03:00N 34°44' E 136°48'613.0
2018-Feb-16 02:30N 34°49' E 136°44'612.7
2018-Feb-16 02:00N 34°55' E 136°41'3 6.0
2018-Feb-16 01:30N 34°57' E 136°38'0 0.0
2018-Feb-16 01:00N 34°57' E 136°38'0 0.0
2018-Feb-16 00:30N 34°57' E 136°38'0 0.0
2018-Feb-15 23:56N 34°57' E 136°38'2 5.7
2018-Feb-15 23:30N 34°56' E 136°41'510.6
2018-Feb-15 23:00N 34°51' E 136°43'5 9.7
2018-Feb-15 22:30N 34°46' E 136°44'5 9.8
2018-Feb-15 22:00N 34°41' E 136°45'810.2
2018-Feb-15 21:14N 34°34' E 136°48'310.2
2018-Feb-15 20:58N 34°31' E 136°49'96 7.4
2018-Feb-15 07:59N 33°51' E 135°03'611.7
2018-Feb-15 07:30N 33°55' E 134°58'611.4
2018-Feb-15 07:01N 33°59' E 134°54'611.7
2018-Feb-15 06:30N 34°04' E 134°49'612.1
2018-Feb-15 06:01N 34°08' E 134°45'612.7
2018-Feb-15 05:31N 34°13' E 134°40'612.0
2018-Feb-15 05:00N 34°17' E 134°34'611.9
2018-Feb-15 04:30N 34°19' E 134°27'612.1
2018-Feb-15 04:00N 34°21' E 134°20'4 0.5
2018-Feb-14 19:39N 34°20' E 134°25'412.4
2018-Feb-14 19:18N 34°18' E 134°30'412.6
2018-Feb-14 19:00N 34°17' E 134°34'612.7
2018-Feb-14 18:30N 34°13' E 134°40'612.4
2018-Feb-14 18:00N 34°08' E 134°45'612.1
2018-Feb-14 17:30N 34°04' E 134°50'612.4
2018-Feb-14 17:00N 33°59' E 134°55'612.3
2018-Feb-14 16:30N 33°54' E 134°59'100 8.2
2018-Feb-14 04:16N 34°29' E 136°52'310.3
2018-Feb-14 03:59N 34°30' E 136°49'712.3
2018-Feb-14 03:24N 34°37' E 136°47'512.7
2018-Feb-14 02:59N 34°42' E 136°45'612.7
2018-Feb-14 02:30N 34°48' E 136°43'612.6
2018-Feb-14 02:00N 34°54' E 136°41'3 6.9
2018-Feb-14 01:30N 34°57' E 136°38'0 0.0
2018-Feb-14 00:57N 34°57' E 136°38'0 0.0
2018-Feb-14 00:27N 34°57' E 136°38'0 0.0
2018-Feb-13 23:49N 34°57' E 136°38'1 4.7
2018-Feb-13 23:30N 34°57' E 136°40'4 7.3
2018-Feb-13 23:00N 34°54' E 136°42'4 8.3
2018-Feb-13 22:30N 34°50' E 136°43'4 8.4
2018-Feb-13 22:00N 34°45' E 136°44'4 8.2
2018-Feb-13 21:30N 34°41' E 136°46'6 8.4
2018-Feb-13 20:50N 34°36' E 136°47'4 8.7
2018-Feb-13 20:23N 34°32' E 136°48'96 7.9
2018-Feb-13 08:12N 33°48' E 135°05'312.0
2018-Feb-13 07:57N 33°50' E 135°03'511.9
2018-Feb-13 07:30N 33°55' E 134°59'611.9
2018-Feb-13 07:00N 33°59' E 134°54'611.9
2018-Feb-13 06:30N 34°04' E 134°49'612.2
2018-Feb-13 06:00N 34°08' E 134°45'612.3
2018-Feb-13 05:31N 34°13' E 134°40'611.7
2018-Feb-13 05:00N 34°17' E 134°34'612.2
2018-Feb-13 04:30N 34°19' E 134°28'2 0.0
2018-Feb-11 09:26N 34°18' E 134°30'610.3
2018-Feb-11 08:49N 34°16' E 134°37'310.4
2018-Feb-11 08:30N 34°13' E 134°40'611.5
2018-Feb-11 08:00N 34°09' E 134°44'510.6
2018-Feb-11 07:30N 34°05' E 134°48'510.5
2018-Feb-11 07:00N 34°01' E 134°52'510.5
2018-Feb-11 06:30N 33°57' E 134°56'5 9.8
2018-Feb-11 06:00N 33°53' E 135°00'167 8.6
2018-Feb-10 10:39N 34°34' E 138°17'511.5
2018-Feb-10 10:14N 34°34' E 138°23'311.8
2018-Feb-10 09:56N 34°34' E 138°27'812.1
2018-Feb-10 09:18N 34°34' E 138°36'512.0
2018-Feb-10 08:52N 34°35' E 138°42'511.4
2018-Feb-10 08:26N 34°35' E 138°48'510.6
2018-Feb-10 07:58N 34°35' E 138°54'4 9.7
2018-Feb-10 07:30N 34°37' E 138°59'510.7
2018-Feb-10 07:00N 34°41' E 139°04'611.2
2018-Feb-10 06:30N 34°45' E 139°09'510.5
2018-Feb-10 05:59N 34°48' E 139°14'5 9.9
2018-Feb-10 05:29N 34°52' E 139°19'510.0
2018-Feb-10 05:00N 34°55' E 139°23'610.1
2018-Feb-10 04:22N 34°59' E 139°29'411.1
2018-Feb-10 04:01N 35°02' E 139°33'611.9
2018-Feb-10 03:31N 35°05' E 139°39'711.8
2018-Feb-10 02:56N 35°10' E 139°44'511.3
2018-Feb-10 02:30N 35°15' E 139°46'611.8
2018-Feb-10 02:01N 35°20' E 139°42'611.8
2018-Feb-10 01:30N 35°25' E 139°43'5 9.3
2018-Feb-10 01:00N 35°30' E 139°44'1 1.1
2018-Feb-10 00:30N 35°30' E 139°45'0 0.0
2018-Feb-09 23:10N 35°30' E 139°45'0 0.0
2018-Feb-09 22:58N 35°30' E 139°45'0 0.0
2018-Feb-09 22:46N 35°30' E 139°45'20 2.8
2018-Feb-09 15:30N 35°10' E 139°45'4613.2
2018-Feb-09 12:00N 34°39' E 139°03'12011.5
2018-Feb-09 01:30N 34°57' E 136°38'  

Dump ship's entire track history